sensor_id;sensor_type;location;lat;lon;timestamp;P1;durP1;ratioP1;P2;durP2;ratioP2
73776;SDS011;62088;50.240;2.696;2022-07-10T00:00:45;8.88;;;1.80;;
73776;SDS011;62088;50.240;2.696;2022-07-10T00:03:12;5.80;;;2.08;;
73776;SDS011;62088;50.240;2.696;2022-07-10T00:05:40;5.20;;;2.00;;
73776;SDS011;62088;50.240;2.696;2022-07-10T00:08:07;5.10;;;2.08;;
73776;SDS011;62088;50.240;2.696;2022-07-10T00:10:34;6.40;;;1.98;;
73776;SDS011;62088;50.240;2.696;2022-07-10T00:13:02;8.25;;;2.20;;
73776;SDS011;62088;50.240;2.696;2022-07-10T00:15:29;6.63;;;2.33;;
73776;SDS011;62088;50.240;2.696;2022-07-10T00:17:58;7.55;;;2.25;;
73776;SDS011;62088;50.240;2.696;2022-07-10T00:20:25;5.70;;;1.80;;
73776;SDS011;62088;50.240;2.696;2022-07-10T00:22:53;7.00;;;2.17;;
73776;SDS011;62088;50.240;2.696;2022-07-10T00:25:27;5.68;;;2.10;;
73776;SDS011;62088;50.240;2.696;2022-07-10T00:27:54;6.15;;;1.83;;
73776;SDS011;62088;50.240;2.696;2022-07-10T00:30:21;6.90;;;2.38;;
73776;SDS011;62088;50.240;2.696;2022-07-10T00:32:49;7.72;;;2.25;;
73776;SDS011;62088;50.240;2.696;2022-07-10T00:35:16;7.10;;;2.03;;
73776;SDS011;62088;50.240;2.696;2022-07-10T00:37:43;5.22;;;1.95;;
73776;SDS011;62088;50.240;2.696;2022-07-10T00:40:10;5.88;;;2.13;;
73776;SDS011;62088;50.240;2.696;2022-07-10T00:42:37;6.00;;;2.00;;
73776;SDS011;62088;50.240;2.696;2022-07-10T00:45:04;6.28;;;1.92;;
73776;SDS011;62088;50.240;2.696;2022-07-10T00:47:32;7.82;;;2.38;;
73776;SDS011;62088;50.240;2.696;2022-07-10T00:49:59;9.25;;;2.55;;
73776;SDS011;62088;50.240;2.696;2022-07-10T00:52:26;8.57;;;2.70;;
73776;SDS011;62088;50.240;2.696;2022-07-10T00:54:53;8.10;;;2.30;;
73776;SDS011;62088;50.240;2.696;2022-07-10T00:57:20;8.80;;;2.78;;
73776;SDS011;62088;50.240;2.696;2022-07-10T00:59:48;10.52;;;2.38;;
73776;SDS011;62088;50.240;2.696;2022-07-10T01:02:15;8.13;;;2.40;;
73776;SDS011;62088;50.240;2.696;2022-07-10T01:04:43;7.30;;;2.10;;
73776;SDS011;62088;50.240;2.696;2022-07-10T01:07:10;6.60;;;2.20;;
73776;SDS011;62088;50.240;2.696;2022-07-10T01:09:38;7.03;;;2.65;;
73776;SDS011;62088;50.240;2.696;2022-07-10T01:12:05;5.93;;;1.95;;
73776;SDS011;62088;50.240;2.696;2022-07-10T01:14:33;12.95;;;2.67;;
73776;SDS011;62088;50.240;2.696;2022-07-10T01:17:02;7.43;;;2.10;;
73776;SDS011;62088;50.240;2.696;2022-07-10T01:19:31;5.07;;;2.15;;
73776;SDS011;62088;50.240;2.696;2022-07-10T01:21:58;9.02;;;2.50;;
73776;SDS011;62088;50.240;2.696;2022-07-10T01:24:25;5.60;;;2.33;;
73776;SDS011;62088;50.240;2.696;2022-07-10T01:26:52;8.05;;;2.25;;
73776;SDS011;62088;50.240;2.696;2022-07-10T01:29:19;7.20;;;2.20;;
73776;SDS011;62088;50.240;2.696;2022-07-10T01:31:48;6.07;;;2.42;;
73776;SDS011;62088;50.240;2.696;2022-07-10T01:34:22;6.57;;;2.40;;
73776;SDS011;62088;50.240;2.696;2022-07-10T01:36:49;6.68;;;2.03;;
73776;SDS011;62088;50.240;2.696;2022-07-10T01:39:16;7.28;;;2.00;;
73776;SDS011;62088;50.240;2.696;2022-07-10T01:41:43;6.93;;;1.92;;
73776;SDS011;62088;50.240;2.696;2022-07-10T01:44:10;7.15;;;2.25;;
73776;SDS011;62088;50.240;2.696;2022-07-10T01:46:46;7.15;;;2.05;;
73776;SDS011;62088;50.240;2.696;2022-07-10T01:49:15;8.77;;;2.20;;
73776;SDS011;62088;50.240;2.696;2022-07-10T01:51:42;7.25;;;1.85;;
73776;SDS011;62088;50.240;2.696;2022-07-10T01:54:09;5.93;;;1.83;;
73776;SDS011;62088;50.240;2.696;2022-07-10T01:56:37;7.53;;;2.08;;
73776;SDS011;62088;50.240;2.696;2022-07-10T01:59:05;8.00;;;2.40;;
73776;SDS011;62088;50.240;2.696;2022-07-10T02:01:32;5.68;;;2.00;;
73776;SDS011;62088;50.240;2.696;2022-07-10T02:03:59;6.28;;;1.90;;
73776;SDS011;62088;50.240;2.696;2022-07-10T02:06:45;7.53;;;2.28;;
73776;SDS011;62088;50.240;2.696;2022-07-10T02:09:12;8.05;;;2.45;;
73776;SDS011;62088;50.240;2.696;2022-07-10T02:11:41;6.07;;;2.20;;
73776;SDS011;62088;50.240;2.696;2022-07-10T02:14:08;12.70;;;2.47;;
73776;SDS011;62088;50.240;2.696;2022-07-10T02:16:35;7.53;;;2.55;;
73776;SDS011;62088;50.240;2.696;2022-07-10T02:19:02;9.40;;;2.47;;
73776;SDS011;62088;50.240;2.696;2022-07-10T02:21:30;6.90;;;2.30;;
73776;SDS011;62088;50.240;2.696;2022-07-10T02:23:57;6.22;;;2.28;;
73776;SDS011;62088;50.240;2.696;2022-07-10T02:26:24;6.82;;;2.15;;
73776;SDS011;62088;50.240;2.696;2022-07-10T02:28:51;5.90;;;2.30;;
73776;SDS011;62088;50.240;2.696;2022-07-10T02:31:18;7.07;;;2.30;;
73776;SDS011;62088;50.240;2.696;2022-07-10T02:33:45;4.25;;;1.80;;
73776;SDS011;62088;50.240;2.696;2022-07-10T02:36:13;6.32;;;2.63;;
73776;SDS011;62088;50.240;2.696;2022-07-10T02:38:40;4.90;;;2.30;;
73776;SDS011;62088;50.240;2.696;2022-07-10T02:41:07;7.22;;;2.70;;
73776;SDS011;62088;50.240;2.696;2022-07-10T02:43:34;8.98;;;2.60;;
73776;SDS011;62088;50.240;2.696;2022-07-10T02:46:01;6.38;;;2.63;;
73776;SDS011;62088;50.240;2.696;2022-07-10T02:48:29;7.05;;;2.30;;
73776;SDS011;62088;50.240;2.696;2022-07-10T02:50:56;5.50;;;2.10;;
73776;SDS011;62088;50.240;2.696;2022-07-10T02:53:22;7.43;;;2.30;;
73776;SDS011;62088;50.240;2.696;2022-07-10T02:55:49;7.53;;;2.53;;
73776;SDS011;62088;50.240;2.696;2022-07-10T02:58:16;6.15;;;2.28;;
73776;SDS011;62088;50.240;2.696;2022-07-10T03:00:44;8.18;;;2.30;;
73776;SDS011;62088;50.240;2.696;2022-07-10T03:03:11;7.13;;;3.03;;
73776;SDS011;62088;50.240;2.696;2022-07-10T03:05:38;6.82;;;2.90;;
73776;SDS011;62088;50.240;2.696;2022-07-10T03:08:05;9.07;;;2.95;;
73776;SDS011;62088;50.240;2.696;2022-07-10T03:10:32;7.47;;;2.42;;
73776;SDS011;62088;50.240;2.696;2022-07-10T03:12:59;8.77;;;3.60;;
73776;SDS011;62088;50.240;2.696;2022-07-10T03:15:26;7.43;;;2.80;;
73776;SDS011;62088;50.240;2.696;2022-07-10T03:17:53;9.65;;;2.92;;
73776;SDS011;62088;50.240;2.696;2022-07-10T03:20:20;8.15;;;2.70;;
73776;SDS011;62088;50.240;2.696;2022-07-10T03:22:47;5.90;;;2.50;;
73776;SDS011;62088;50.240;2.696;2022-07-10T03:25:15;7.82;;;2.83;;
73776;SDS011;62088;50.240;2.696;2022-07-10T03:27:42;7.90;;;2.80;;
73776;SDS011;62088;50.240;2.696;2022-07-10T03:30:09;6.78;;;2.50;;
73776;SDS011;62088;50.240;2.696;2022-07-10T03:32:36;7.85;;;2.67;;
73776;SDS011;62088;50.240;2.696;2022-07-10T03:35:03;9.82;;;3.10;;
73776;SDS011;62088;50.240;2.696;2022-07-10T03:37:31;6.57;;;2.45;;
73776;SDS011;62088;50.240;2.696;2022-07-10T03:39:58;8.35;;;2.60;;
73776;SDS011;62088;50.240;2.696;2022-07-10T03:42:25;5.63;;;2.08;;
73776;SDS011;62088;50.240;2.696;2022-07-10T03:44:52;7.13;;;2.50;;
73776;SDS011;62088;50.240;2.696;2022-07-10T03:47:19;7.68;;;2.50;;
73776;SDS011;62088;50.240;2.696;2022-07-10T03:49:46;8.95;;;2.80;;
73776;SDS011;62088;50.240;2.696;2022-07-10T03:52:13;8.88;;;3.17;;
73776;SDS011;62088;50.240;2.696;2022-07-10T03:54:40;8.20;;;2.70;;
73776;SDS011;62088;50.240;2.696;2022-07-10T03:57:06;7.00;;;2.63;;
73776;SDS011;62088;50.240;2.696;2022-07-10T03:59:52;6.43;;;2.50;;
73776;SDS011;62088;50.240;2.696;2022-07-10T04:02:19;5.68;;;2.22;;
73776;SDS011;62088;50.240;2.696;2022-07-10T04:04:46;10.88;;;3.28;;
73776;SDS011;62088;50.240;2.696;2022-07-10T04:07:13;7.88;;;2.50;;
73776;SDS011;62088;50.240;2.696;2022-07-10T04:09:40;13.13;;;3.95;;
73776;SDS011;62088;50.240;2.696;2022-07-10T04:12:07;5.90;;;2.47;;
73776;SDS011;62088;50.240;2.696;2022-07-10T04:14:34;9.77;;;2.72;;
73776;SDS011;62088;50.240;2.696;2022-07-10T04:17:01;6.00;;;2.70;;
73776;SDS011;62088;50.240;2.696;2022-07-10T04:19:28;14.25;;;3.85;;
73776;SDS011;62088;50.240;2.696;2022-07-10T04:21:55;7.80;;;2.90;;
73776;SDS011;62088;50.240;2.696;2022-07-10T04:24:22;6.32;;;2.70;;
73776;SDS011;62088;50.240;2.696;2022-07-10T04:26:49;5.95;;;2.42;;
73776;SDS011;62088;50.240;2.696;2022-07-10T04:29:16;6.88;;;2.58;;
73776;SDS011;62088;50.240;2.696;2022-07-10T04:31:43;6.07;;;2.80;;
73776;SDS011;62088;50.240;2.696;2022-07-10T04:34:10;5.50;;;2.72;;
73776;SDS011;62088;50.240;2.696;2022-07-10T04:36:37;5.85;;;2.80;;
73776;SDS011;62088;50.240;2.696;2022-07-10T04:39:04;6.72;;;2.60;;
73776;SDS011;62088;50.240;2.696;2022-07-10T04:41:31;11.13;;;3.80;;
73776;SDS011;62088;50.240;2.696;2022-07-10T04:43:58;7.97;;;3.08;;
73776;SDS011;62088;50.240;2.696;2022-07-10T04:46:25;7.85;;;2.88;;
73776;SDS011;62088;50.240;2.696;2022-07-10T04:48:52;8.48;;;2.88;;
73776;SDS011;62088;50.240;2.696;2022-07-10T04:51:19;6.63;;;3.70;;
73776;SDS011;62088;50.240;2.696;2022-07-10T04:53:46;6.50;;;3.10;;
73776;SDS011;62088;50.240;2.696;2022-07-10T04:56:13;6.43;;;3.22;;
73776;SDS011;62088;50.240;2.696;2022-07-10T04:58:40;6.75;;;3.30;;
73776;SDS011;62088;50.240;2.696;2022-07-10T05:01:12;11.18;;;4.05;;
73776;SDS011;62088;50.240;2.696;2022-07-10T05:03:39;8.73;;;3.63;;
73776;SDS011;62088;50.240;2.696;2022-07-10T05:06:06;9.32;;;3.17;;
73776;SDS011;62088;50.240;2.696;2022-07-10T05:08:33;8.18;;;3.78;;
73776;SDS011;62088;50.240;2.696;2022-07-10T05:11:00;13.85;;;4.00;;
73776;SDS011;62088;50.240;2.696;2022-07-10T05:13:27;8.43;;;4.07;;
73776;SDS011;62088;50.240;2.696;2022-07-10T05:15:54;10.32;;;3.95;;
73776;SDS011;62088;50.240;2.696;2022-07-10T05:18:21;11.05;;;4.25;;
73776;SDS011;62088;50.240;2.696;2022-07-10T05:20:48;10.80;;;3.58;;
73776;SDS011;62088;50.240;2.696;2022-07-10T05:23:15;10.25;;;3.60;;
73776;SDS011;62088;50.240;2.696;2022-07-10T05:25:43;10.00;;;3.65;;
73776;SDS011;62088;50.240;2.696;2022-07-10T05:28:10;8.88;;;4.03;;
73776;SDS011;62088;50.240;2.696;2022-07-10T05:30:39;7.88;;;3.58;;
73776;SDS011;62088;50.240;2.696;2022-07-10T05:33:06;9.32;;;3.80;;
73776;SDS011;62088;50.240;2.696;2022-07-10T05:35:33;9.75;;;3.65;;
73776;SDS011;62088;50.240;2.696;2022-07-10T05:38:01;10.65;;;4.80;;
73776;SDS011;62088;50.240;2.696;2022-07-10T05:40:28;12.68;;;4.88;;
73776;SDS011;62088;50.240;2.696;2022-07-10T05:42:55;10.98;;;5.05;;
73776;SDS011;62088;50.240;2.696;2022-07-10T05:45:22;12.13;;;4.72;;
73776;SDS011;62088;50.240;2.696;2022-07-10T05:47:49;10.07;;;3.83;;
73776;SDS011;62088;50.240;2.696;2022-07-10T05:50:16;10.93;;;5.00;;
73776;SDS011;62088;50.240;2.696;2022-07-10T05:52:43;13.95;;;5.97;;
73776;SDS011;62088;50.240;2.696;2022-07-10T05:55:10;10.40;;;4.80;;
73776;SDS011;62088;50.240;2.696;2022-07-10T05:57:37;9.85;;;5.20;;
73776;SDS011;62088;50.240;2.696;2022-07-10T06:00:04;13.57;;;5.78;;
73776;SDS011;62088;50.240;2.696;2022-07-10T06:05:05;12.65;;;5.72;;
73776;SDS011;62088;50.240;2.696;2022-07-10T06:07:33;11.15;;;5.53;;
73776;SDS011;62088;50.240;2.696;2022-07-10T06:10:01;10.38;;;5.25;;
73776;SDS011;62088;50.240;2.696;2022-07-10T06:12:29;10.23;;;4.20;;
73776;SDS011;62088;50.240;2.696;2022-07-10T06:14:56;15.38;;;5.57;;
73776;SDS011;62088;50.240;2.696;2022-07-10T06:17:23;12.68;;;5.57;;
73776;SDS011;62088;50.240;2.696;2022-07-10T06:19:51;15.07;;;4.50;;
73776;SDS011;62088;50.240;2.696;2022-07-10T06:22:17;12.32;;;5.80;;
73776;SDS011;62088;50.240;2.696;2022-07-10T06:25:00;15.65;;;5.47;;
73776;SDS011;62088;50.240;2.696;2022-07-10T06:27:30;12.98;;;5.13;;
73776;SDS011;62088;50.240;2.696;2022-07-10T06:29:57;11.75;;;3.95;;
73776;SDS011;62088;50.240;2.696;2022-07-10T06:32:25;9.55;;;2.50;;
73776;SDS011;62088;50.240;2.696;2022-07-10T06:34:53;12.35;;;3.22;;
73776;SDS011;62088;50.240;2.696;2022-07-10T06:37:21;10.57;;;3.65;;
73776;SDS011;62088;50.240;2.696;2022-07-10T06:39:48;9.48;;;2.97;;
73776;SDS011;62088;50.240;2.696;2022-07-10T06:42:16;7.85;;;2.50;;
73776;SDS011;62088;50.240;2.696;2022-07-10T06:44:47;8.07;;;2.40;;
73776;SDS011;62088;50.240;2.696;2022-07-10T06:47:15;8.23;;;2.08;;
73776;SDS011;62088;50.240;2.696;2022-07-10T06:50:03;7.38;;;2.47;;
73776;SDS011;62088;50.240;2.696;2022-07-10T06:52:32;8.07;;;2.10;;
73776;SDS011;62088;50.240;2.696;2022-07-10T06:54:59;8.50;;;1.80;;
73776;SDS011;62088;50.240;2.696;2022-07-10T06:57:27;9.00;;;1.60;;
73776;SDS011;62088;50.240;2.696;2022-07-10T06:59:54;10.63;;;2.10;;
73776;SDS011;62088;50.240;2.696;2022-07-10T07:02:21;7.20;;;1.88;;
73776;SDS011;62088;50.240;2.696;2022-07-10T07:04:49;8.05;;;1.95;;
73776;SDS011;62088;50.240;2.696;2022-07-10T07:07:16;7.70;;;1.60;;
73776;SDS011;62088;50.240;2.696;2022-07-10T07:09:50;5.85;;;1.88;;
73776;SDS011;62088;50.240;2.696;2022-07-10T07:12:17;8.57;;;1.77;;
73776;SDS011;62088;50.240;2.696;2022-07-10T07:14:44;7.15;;;1.80;;
73776;SDS011;62088;50.240;2.696;2022-07-10T07:17:12;6.43;;;1.55;;
73776;SDS011;62088;50.240;2.696;2022-07-10T07:19:41;9.57;;;2.08;;
73776;SDS011;62088;50.240;2.696;2022-07-10T07:22:26;8.95;;;1.70;;
73776;SDS011;62088;50.240;2.696;2022-07-10T07:25:12;6.32;;;1.70;;
73776;SDS011;62088;50.240;2.696;2022-07-10T07:27:39;8.20;;;1.85;;
73776;SDS011;62088;50.240;2.696;2022-07-10T07:30:07;6.82;;;1.80;;
73776;SDS011;62088;50.240;2.696;2022-07-10T07:32:38;6.35;;;1.95;;
73776;SDS011;62088;50.240;2.696;2022-07-10T07:35:06;5.90;;;2.08;;
73776;SDS011;62088;50.240;2.696;2022-07-10T07:37:41;6.60;;;2.30;;
73776;SDS011;62088;50.240;2.696;2022-07-10T07:40:12;6.70;;;1.95;;
73776;SDS011;62088;50.240;2.696;2022-07-10T07:42:40;6.65;;;1.85;;
73776;SDS011;62088;50.240;2.696;2022-07-10T07:45:08;9.98;;;2.05;;
73776;SDS011;62088;50.240;2.696;2022-07-10T07:48:09;7.45;;;2.28;;
73776;SDS011;62088;50.240;2.696;2022-07-10T07:50:30;6.43;;;2.10;;
73776;SDS011;62088;50.240;2.696;2022-07-10T07:53:02;5.88;;;1.58;;
73776;SDS011;62088;50.240;2.696;2022-07-10T07:55:30;5.65;;;1.88;;
73776;SDS011;62088;50.240;2.696;2022-07-10T07:57:59;7.20;;;1.65;;
73776;SDS011;62088;50.240;2.696;2022-07-10T08:00:28;6.30;;;1.77;;
73776;SDS011;62088;50.240;2.696;2022-07-10T08:02:56;6.32;;;1.60;;
73776;SDS011;62088;50.240;2.696;2022-07-10T08:05:24;5.72;;;1.70;;
73776;SDS011;62088;50.240;2.696;2022-07-10T08:07:55;4.78;;;1.58;;
73776;SDS011;62088;50.240;2.696;2022-07-10T08:10:24;8.35;;;1.92;;
73776;SDS011;62088;50.240;2.696;2022-07-10T08:12:55;7.90;;;1.80;;
73776;SDS011;62088;50.240;2.696;2022-07-10T08:15:22;10.50;;;2.05;;
73776;SDS011;62088;50.240;2.696;2022-07-10T08:17:50;6.30;;;1.80;;
73776;SDS011;62088;50.240;2.696;2022-07-10T08:20:19;5.78;;;2.10;;
73776;SDS011;62088;50.240;2.696;2022-07-10T08:22:47;7.68;;;1.63;;
73776;SDS011;62088;50.240;2.696;2022-07-10T08:25:22;5.25;;;1.58;;
73776;SDS011;62088;50.240;2.696;2022-07-10T08:27:50;7.35;;;1.92;;
73776;SDS011;62088;50.240;2.696;2022-07-10T08:30:17;7.53;;;1.70;;
73776;SDS011;62088;50.240;2.696;2022-07-10T08:32:44;5.47;;;1.63;;
73776;SDS011;62088;50.240;2.696;2022-07-10T08:35:11;7.50;;;1.58;;
73776;SDS011;62088;50.240;2.696;2022-07-10T08:37:40;11.63;;;2.05;;
73776;SDS011;62088;50.240;2.696;2022-07-10T08:40:09;8.40;;;1.90;;
73776;SDS011;62088;50.240;2.696;2022-07-10T08:42:37;10.73;;;1.98;;
73776;SDS011;62088;50.240;2.696;2022-07-10T08:45:04;6.25;;;1.95;;
73776;SDS011;62088;50.240;2.696;2022-07-10T08:47:36;6.53;;;1.60;;
73776;SDS011;62088;50.240;2.696;2022-07-10T08:50:07;6.28;;;1.65;;
73776;SDS011;62088;50.240;2.696;2022-07-10T08:53:08;6.90;;;1.58;;
73776;SDS011;62088;50.240;2.696;2022-07-10T08:55:40;6.32;;;1.45;;
73776;SDS011;62088;50.240;2.696;2022-07-10T08:58:07;6.80;;;1.60;;
73776;SDS011;62088;50.240;2.696;2022-07-10T09:00:35;4.15;;;1.40;;
73776;SDS011;62088;50.240;2.696;2022-07-10T09:03:02;7.07;;;1.88;;
73776;SDS011;62088;50.240;2.696;2022-07-10T09:05:31;4.68;;;1.50;;
73776;SDS011;62088;50.240;2.696;2022-07-10T09:07:58;5.18;;;1.40;;
73776;SDS011;62088;50.240;2.696;2022-07-10T09:10:25;5.28;;;1.50;;
73776;SDS011;62088;50.240;2.696;2022-07-10T09:12:54;6.93;;;1.80;;
73776;SDS011;62088;50.240;2.696;2022-07-10T09:15:26;5.63;;;1.48;;
73776;SDS011;62088;50.240;2.696;2022-07-10T09:17:59;5.63;;;1.70;;
73776;SDS011;62088;50.240;2.696;2022-07-10T09:20:32;6.30;;;1.80;;
73776;SDS011;62088;50.240;2.696;2022-07-10T09:23:19;9.35;;;1.88;;
73776;SDS011;62088;50.240;2.696;2022-07-10T09:25:48;7.97;;;1.98;;
73776;SDS011;62088;50.240;2.696;2022-07-10T09:28:17;4.90;;;1.50;;
73776;SDS011;62088;50.240;2.696;2022-07-10T09:30:45;5.97;;;1.58;;
73776;SDS011;62088;50.240;2.696;2022-07-10T09:33:17;7.25;;;1.85;;
73776;SDS011;62088;50.240;2.696;2022-07-10T09:43:54;4.00;;;1.30;;
73776;SDS011;62088;50.240;2.696;2022-07-10T09:46:30;4.85;;;1.20;;
73776;SDS011;62088;50.240;2.696;2022-07-10T09:51:44;3.92;;;1.23;;
73776;SDS011;62088;50.240;2.696;2022-07-10T09:54:15;8.50;;;2.10;;
73776;SDS011;62088;50.240;2.696;2022-07-10T09:56:43;5.65;;;1.52;;
73776;SDS011;62088;50.240;2.696;2022-07-10T09:59:18;5.15;;;1.45;;
73776;SDS011;62088;50.240;2.696;2022-07-10T10:01:49;4.25;;;1.50;;
73776;SDS011;62088;50.240;2.696;2022-07-10T10:04:18;5.05;;;1.40;;
73776;SDS011;62088;50.240;2.696;2022-07-10T10:06:49;4.30;;;1.40;;
73776;SDS011;62088;50.240;2.696;2022-07-10T10:09:24;5.18;;;1.50;;
73776;SDS011;62088;50.240;2.696;2022-07-10T10:12:02;4.13;;;1.50;;
73776;SDS011;62088;50.240;2.696;2022-07-10T10:14:35;4.85;;;1.35;;
73776;SDS011;62088;50.240;2.696;2022-07-10T10:17:02;4.63;;;1.52;;
73776;SDS011;62088;50.240;2.696;2022-07-10T10:19:31;4.60;;;1.35;;
73776;SDS011;62088;50.240;2.696;2022-07-10T10:22:18;4.97;;;1.45;;
73776;SDS011;62088;50.240;2.696;2022-07-10T10:24:46;8.05;;;1.65;;
73776;SDS011;62088;50.240;2.696;2022-07-10T10:27:14;5.30;;;1.35;;
73776;SDS011;62088;50.240;2.696;2022-07-10T10:29:42;6.05;;;1.30;;
73776;SDS011;62088;50.240;2.696;2022-07-10T10:32:09;6.70;;;1.35;;
73776;SDS011;62088;50.240;2.696;2022-07-10T10:34:38;5.15;;;1.30;;
73776;SDS011;62088;50.240;2.696;2022-07-10T10:39:54;4.10;;;1.40;;
73776;SDS011;62088;50.240;2.696;2022-07-10T10:42:43;3.63;;;1.45;;
73776;SDS011;62088;50.240;2.696;2022-07-10T10:45:23;3.60;;;1.38;;
73776;SDS011;62088;50.240;2.696;2022-07-10T10:47:59;5.65;;;1.33;;
73776;SDS011;62088;50.240;2.696;2022-07-10T10:58:37;5.07;;;1.35;;
73776;SDS011;62088;50.240;2.696;2022-07-10T11:06:40;4.72;;;1.42;;
73776;SDS011;62088;50.240;2.696;2022-07-10T11:09:21;3.33;;;1.00;;
73776;SDS011;62088;50.240;2.696;2022-07-10T11:14:32;6.80;;;1.50;;
73776;SDS011;62088;50.240;2.696;2022-07-10T11:17:01;3.78;;;1.40;;
73776;SDS011;62088;50.240;2.696;2022-07-10T11:19:29;4.45;;;1.38;;
73776;SDS011;62088;50.240;2.696;2022-07-10T11:30:18;4.88;;;1.30;;
73776;SDS011;62088;50.240;2.696;2022-07-10T11:32:45;7.03;;;1.33;;
73776;SDS011;62088;50.240;2.696;2022-07-10T11:35:13;3.40;;;1.17;;
73776;SDS011;62088;50.240;2.696;2022-07-10T11:38:02;4.82;;;1.50;;
73776;SDS011;62088;50.240;2.696;2022-07-10T11:40:28;4.65;;;1.55;;
73776;SDS011;62088;50.240;2.696;2022-07-10T11:42:55;5.70;;;1.63;;
73776;SDS011;62088;50.240;2.696;2022-07-10T11:45:27;3.83;;;1.38;;
73776;SDS011;62088;50.240;2.696;2022-07-10T11:47:56;8.10;;;1.40;;
73776;SDS011;62088;50.240;2.696;2022-07-10T11:50:24;4.10;;;1.20;;
73776;SDS011;62088;50.240;2.696;2022-07-10T11:52:52;3.88;;;1.33;;
73776;SDS011;62088;50.240;2.696;2022-07-10T11:55:21;3.40;;;1.38;;
73776;SDS011;62088;50.240;2.696;2022-07-10T11:57:49;3.50;;;1.40;;
73776;SDS011;62088;50.240;2.696;2022-07-10T12:00:20;5.97;;;1.52;;
73776;SDS011;62088;50.240;2.696;2022-07-10T12:02:50;9.52;;;2.00;;
73776;SDS011;62088;50.240;2.696;2022-07-10T12:08:01;8.23;;;1.37;;
73776;SDS011;62088;50.240;2.696;2022-07-10T12:10:30;5.88;;;1.52;;
73776;SDS011;62088;50.240;2.696;2022-07-10T12:13:04;3.83;;;1.40;;
73776;SDS011;62088;50.240;2.696;2022-07-10T12:18:00;4.05;;;1.27;;
73776;SDS011;62088;50.240;2.696;2022-07-10T12:20:27;7.47;;;1.50;;
73776;SDS011;62088;50.240;2.696;2022-07-10T12:22:54;6.78;;;1.65;;
73776;SDS011;62088;50.240;2.696;2022-07-10T12:25:22;5.32;;;1.33;;
73776;SDS011;62088;50.240;2.696;2022-07-10T12:27:54;5.18;;;1.50;;
73776;SDS011;62088;50.240;2.696;2022-07-10T12:30:22;7.57;;;1.50;;
73776;SDS011;62088;50.240;2.696;2022-07-10T12:32:50;3.45;;;1.30;;
73776;SDS011;62088;50.240;2.696;2022-07-10T12:35:17;5.75;;;1.58;;
73776;SDS011;62088;50.240;2.696;2022-07-10T12:37:48;7.10;;;1.60;;
73776;SDS011;62088;50.240;2.696;2022-07-10T12:40:32;4.57;;;1.25;;
73776;SDS011;62088;50.240;2.696;2022-07-10T12:43:03;4.60;;;1.50;;
73776;SDS011;62088;50.240;2.696;2022-07-10T12:45:31;3.92;;;1.35;;
73776;SDS011;62088;50.240;2.696;2022-07-10T12:47:58;4.55;;;1.67;;
73776;SDS011;62088;50.240;2.696;2022-07-10T12:50:26;5.70;;;1.70;;
73776;SDS011;62088;50.240;2.696;2022-07-10T12:53:09;5.28;;;1.65;;
73776;SDS011;62088;50.240;2.696;2022-07-10T12:55:38;5.93;;;1.50;;
73776;SDS011;62088;50.240;2.696;2022-07-10T12:58:06;3.92;;;1.50;;
73776;SDS011;62088;50.240;2.696;2022-07-10T13:00:35;5.85;;;1.40;;
73776;SDS011;62088;50.240;2.696;2022-07-10T13:03:11;6.40;;;1.50;;
73776;SDS011;62088;50.240;2.696;2022-07-10T13:05:45;3.70;;;1.33;;
73776;SDS011;62088;50.240;2.696;2022-07-10T13:08:16;4.68;;;1.42;;
73776;SDS011;62088;50.240;2.696;2022-07-10T13:10:55;6.75;;;1.20;;
73776;SDS011;62088;50.240;2.696;2022-07-10T13:13:25;5.78;;;1.63;;
73776;SDS011;62088;50.240;2.696;2022-07-10T13:15:52;6.82;;;1.65;;
73776;SDS011;62088;50.240;2.696;2022-07-10T13:18:24;6.78;;;1.40;;
73776;SDS011;62088;50.240;2.696;2022-07-10T13:20:53;4.07;;;1.35;;
73776;SDS011;62088;50.240;2.696;2022-07-10T13:23:28;2.78;;;1.13;;
73776;SDS011;62088;50.240;2.696;2022-07-10T13:25:58;5.03;;;1.52;;
73776;SDS011;62088;50.240;2.696;2022-07-10T13:28:27;3.63;;;1.30;;
73776;SDS011;62088;50.240;2.696;2022-07-10T13:30:54;5.03;;;1.30;;
73776;SDS011;62088;50.240;2.696;2022-07-10T13:33:22;4.95;;;1.30;;
73776;SDS011;62088;50.240;2.696;2022-07-10T13:35:52;6.70;;;1.45;;
73776;SDS011;62088;50.240;2.696;2022-07-10T13:38:19;4.78;;;1.20;;
73776;SDS011;62088;50.240;2.696;2022-07-10T13:40:47;5.43;;;1.20;;
73776;SDS011;62088;50.240;2.696;2022-07-10T13:43:14;5.97;;;1.73;;
73776;SDS011;62088;50.240;2.696;2022-07-10T13:45:44;6.47;;;1.33;;
73776;SDS011;62088;50.240;2.696;2022-07-10T13:48:11;3.38;;;1.10;;
73776;SDS011;62088;50.240;2.696;2022-07-10T13:50:40;5.47;;;1.42;;
73776;SDS011;62088;50.240;2.696;2022-07-10T13:53:08;4.55;;;1.33;;
73776;SDS011;62088;50.240;2.696;2022-07-10T13:55:36;6.30;;;1.35;;
73776;SDS011;62088;50.240;2.696;2022-07-10T13:58:04;3.63;;;1.25;;
73776;SDS011;62088;50.240;2.696;2022-07-10T14:00:31;3.05;;;1.08;;
73776;SDS011;62088;50.240;2.696;2022-07-10T14:02:58;6.78;;;1.33;;
73776;SDS011;62088;50.240;2.696;2022-07-10T14:05:27;7.65;;;1.20;;
73776;SDS011;62088;50.240;2.696;2022-07-10T14:07:54;4.82;;;1.42;;
73776;SDS011;62088;50.240;2.696;2022-07-10T14:10:21;3.58;;;1.27;;
73776;SDS011;62088;50.240;2.696;2022-07-10T14:12:48;4.07;;;1.38;;
73776;SDS011;62088;50.240;2.696;2022-07-10T14:15:16;4.13;;;1.05;;
73776;SDS011;62088;50.240;2.696;2022-07-10T14:17:43;5.68;;;1.30;;
73776;SDS011;62088;50.240;2.696;2022-07-10T14:20:11;6.55;;;1.27;;
73776;SDS011;62088;50.240;2.696;2022-07-10T14:22:38;7.25;;;1.30;;
73776;SDS011;62088;50.240;2.696;2022-07-10T14:25:05;4.13;;;1.10;;
73776;SDS011;62088;50.240;2.696;2022-07-10T14:27:35;4.97;;;1.00;;
73776;SDS011;62088;50.240;2.696;2022-07-10T14:30:02;4.57;;;1.48;;
73776;SDS011;62088;50.240;2.696;2022-07-10T14:32:30;6.00;;;1.13;;
73776;SDS011;62088;50.240;2.696;2022-07-10T14:34:57;9.13;;;1.20;;
73776;SDS011;62088;50.240;2.696;2022-07-10T14:37:24;3.78;;;1.17;;
73776;SDS011;62088;50.240;2.696;2022-07-10T14:39:51;4.60;;;1.20;;
73776;SDS011;62088;50.240;2.696;2022-07-10T14:42:18;4.00;;;1.23;;
73776;SDS011;62088;50.240;2.696;2022-07-10T14:44:45;5.25;;;1.50;;
73776;SDS011;62088;50.240;2.696;2022-07-10T14:47:12;3.78;;;1.10;;
73776;SDS011;62088;50.240;2.696;2022-07-10T14:49:40;5.55;;;1.50;;
73776;SDS011;62088;50.240;2.696;2022-07-10T14:52:07;4.53;;;1.33;;
73776;SDS011;62088;50.240;2.696;2022-07-10T14:54:34;9.85;;;1.45;;
73776;SDS011;62088;50.240;2.696;2022-07-10T14:57:01;3.30;;;1.23;;
73776;SDS011;62088;50.240;2.696;2022-07-10T14:59:29;3.28;;;1.30;;
73776;SDS011;62088;50.240;2.696;2022-07-10T15:01:56;4.30;;;1.20;;
73776;SDS011;62088;50.240;2.696;2022-07-10T15:04:24;3.85;;;1.20;;
73776;SDS011;62088;50.240;2.696;2022-07-10T15:06:51;3.65;;;1.23;;
73776;SDS011;62088;50.240;2.696;2022-07-10T15:09:18;4.30;;;1.27;;
73776;SDS011;62088;50.240;2.696;2022-07-10T15:11:45;4.95;;;1.25;;
73776;SDS011;62088;50.240;2.696;2022-07-10T15:14:12;4.28;;;1.30;;
73776;SDS011;62088;50.240;2.696;2022-07-10T15:16:39;4.18;;;1.30;;
73776;SDS011;62088;50.240;2.696;2022-07-10T15:19:06;4.70;;;1.10;;
73776;SDS011;62088;50.240;2.696;2022-07-10T15:21:36;5.88;;;1.67;;
73776;SDS011;62088;50.240;2.696;2022-07-10T15:24:03;4.93;;;1.23;;
73776;SDS011;62088;50.240;2.696;2022-07-10T15:26:30;3.20;;;1.20;;
73776;SDS011;62088;50.240;2.696;2022-07-10T15:28:57;5.05;;;1.35;;
73776;SDS011;62088;50.240;2.696;2022-07-10T15:31:25;8.02;;;1.45;;
73776;SDS011;62088;50.240;2.696;2022-07-10T15:33:52;4.57;;;1.38;;
73776;SDS011;62088;50.240;2.696;2022-07-10T15:36:19;4.18;;;1.20;;
73776;SDS011;62088;50.240;2.696;2022-07-10T15:38:48;4.35;;;1.10;;
73776;SDS011;62088;50.240;2.696;2022-07-10T15:41:15;3.22;;;1.20;;